sensor_id;sensor_type;location;lat;lon;timestamp;P1;durP1;ratioP1;P2;durP2;ratioP2
52786;SDS011;38661;53.152;5.846;2022-11-11T00:01:01;13.23;;;7.18;;
52786;SDS011;38661;53.152;5.846;2022-11-11T00:03:41;13.20;;;8.15;;
52786;SDS011;38661;53.152;5.846;2022-11-11T00:06:11;15.88;;;8.77;;
52786;SDS011;38661;53.152;5.846;2022-11-11T00:08:39;15.98;;;8.45;;
52786;SDS011;38661;53.152;5.846;2022-11-11T00:11:09;15.25;;;9.10;;
52786;SDS011;38661;53.152;5.846;2022-11-11T00:13:36;14.88;;;8.25;;
52786;SDS011;38661;53.152;5.846;2022-11-11T00:16:10;16.50;;;8.52;;
52786;SDS011;38661;53.152;5.846;2022-11-11T00:18:38;17.13;;;9.02;;
52786;SDS011;38661;53.152;5.846;2022-11-11T00:21:23;17.63;;;8.80;;
52786;SDS011;38661;53.152;5.846;2022-11-11T00:24:22;17.33;;;9.73;;
52786;SDS011;38661;53.152;5.846;2022-11-11T00:27:08;18.33;;;9.15;;
52786;SDS011;38661;53.152;5.846;2022-11-11T00:29:35;18.38;;;10.35;;
52786;SDS011;38661;53.152;5.846;2022-11-11T00:32:01;15.57;;;9.95;;
52786;SDS011;38661;53.152;5.846;2022-11-11T00:37:31;17.73;;;8.68;;
52786;SDS011;38661;53.152;5.846;2022-11-11T00:39:57;17.88;;;9.18;;
52786;SDS011;38661;53.152;5.846;2022-11-11T00:42:23;17.80;;;10.27;;
52786;SDS011;38661;53.152;5.846;2022-11-11T00:44:49;16.65;;;10.02;;
52786;SDS011;38661;53.152;5.846;2022-11-11T00:47:15;19.42;;;11.15;;
52786;SDS011;38661;53.152;5.846;2022-11-11T00:49:59;18.95;;;10.20;;
52786;SDS011;38661;53.152;5.846;2022-11-11T00:52:46;19.15;;;9.80;;
52786;SDS011;38661;53.152;5.846;2022-11-11T00:55:13;21.05;;;11.85;;
52786;SDS011;38661;53.152;5.846;2022-11-11T00:57:39;18.27;;;10.60;;
52786;SDS011;38661;53.152;5.846;2022-11-11T01:00:05;25.45;;;11.52;;
52786;SDS011;38661;53.152;5.846;2022-11-11T01:02:31;20.98;;;10.52;;
52786;SDS011;38661;53.152;5.846;2022-11-11T01:04:57;21.55;;;11.43;;
52786;SDS011;38661;53.152;5.846;2022-11-11T01:07:23;21.40;;;12.00;;
52786;SDS011;38661;53.152;5.846;2022-11-11T01:09:48;20.00;;;11.85;;
52786;SDS011;38661;53.152;5.846;2022-11-11T01:12:14;21.77;;;11.90;;
52786;SDS011;38661;53.152;5.846;2022-11-11T01:14:40;20.38;;;10.60;;
52786;SDS011;38661;53.152;5.846;2022-11-11T01:17:06;18.63;;;12.63;;
52786;SDS011;38661;53.152;5.846;2022-11-11T01:19:33;17.42;;;10.85;;
52786;SDS011;38661;53.152;5.846;2022-11-11T01:21:59;17.88;;;11.25;;
52786;SDS011;38661;53.152;5.846;2022-11-11T01:24:25;20.77;;;11.55;;
52786;SDS011;38661;53.152;5.846;2022-11-11T01:26:51;20.50;;;11.60;;
52786;SDS011;38661;53.152;5.846;2022-11-11T01:29:16;21.27;;;11.70;;
52786;SDS011;38661;53.152;5.846;2022-11-11T01:31:42;18.70;;;12.30;;
52786;SDS011;38661;53.152;5.846;2022-11-11T01:34:08;20.10;;;11.32;;
52786;SDS011;38661;53.152;5.846;2022-11-11T01:36:34;16.83;;;11.07;;
52786;SDS011;38661;53.152;5.846;2022-11-11T01:39:00;23.35;;;12.32;;
52786;SDS011;38661;53.152;5.846;2022-11-11T01:41:27;22.58;;;12.65;;
52786;SDS011;38661;53.152;5.846;2022-11-11T01:46:35;18.45;;;10.82;;
52786;SDS011;38661;53.152;5.846;2022-11-11T01:52:08;20.13;;;11.85;;
52786;SDS011;38661;53.152;5.846;2022-11-11T01:57:20;22.05;;;12.85;;
52786;SDS011;38661;53.152;5.846;2022-11-11T01:59:51;20.92;;;11.55;;
52786;SDS011;38661;53.152;5.846;2022-11-11T02:02:27;21.58;;;12.68;;
52786;SDS011;38661;53.152;5.846;2022-11-11T02:04:53;19.33;;;11.90;;
52786;SDS011;38661;53.152;5.846;2022-11-11T02:07:38;23.90;;;12.98;;
52786;SDS011;38661;53.152;5.846;2022-11-11T02:10:06;23.60;;;12.98;;
52786;SDS011;38661;53.152;5.846;2022-11-11T02:12:33;17.52;;;12.43;;
52786;SDS011;38661;53.152;5.846;2022-11-11T02:15:18;18.95;;;10.75;;
52786;SDS011;38661;53.152;5.846;2022-11-11T02:17:44;25.80;;;12.65;;
52786;SDS011;38661;53.152;5.846;2022-11-11T02:20:13;22.52;;;11.65;;
52786;SDS011;38661;53.152;5.846;2022-11-11T02:22:49;24.90;;;14.20;;
52786;SDS011;38661;53.152;5.846;2022-11-11T02:25:22;23.48;;;14.27;;
52786;SDS011;38661;53.152;5.846;2022-11-11T02:27:51;22.92;;;15.18;;
52786;SDS011;38661;53.152;5.846;2022-11-11T02:30:21;22.45;;;14.55;;
52786;SDS011;38661;53.152;5.846;2022-11-11T02:32:48;28.13;;;16.77;;
52786;SDS011;38661;53.152;5.846;2022-11-11T02:35:19;23.33;;;15.38;;
52786;SDS011;38661;53.152;5.846;2022-11-11T02:37:56;24.25;;;16.17;;
52786;SDS011;38661;53.152;5.846;2022-11-11T02:40:27;24.60;;;17.15;;
52786;SDS011;38661;53.152;5.846;2022-11-11T02:42:56;28.92;;;17.33;;
52786;SDS011;38661;53.152;5.846;2022-11-11T02:45:22;28.25;;;18.13;;
52786;SDS011;38661;53.152;5.846;2022-11-11T02:47:48;29.85;;;18.48;;
52786;SDS011;38661;53.152;5.846;2022-11-11T02:50:14;24.08;;;15.18;;
52786;SDS011;38661;53.152;5.846;2022-11-11T02:52:40;31.10;;;18.25;;
52786;SDS011;38661;53.152;5.846;2022-11-11T02:55:06;25.42;;;16.80;;
52786;SDS011;38661;53.152;5.846;2022-11-11T02:57:32;30.60;;;18.40;;
52786;SDS011;38661;53.152;5.846;2022-11-11T02:59:58;25.30;;;17.38;;
52786;SDS011;38661;53.152;5.846;2022-11-11T03:02:25;24.70;;;17.10;;
52786;SDS011;38661;53.152;5.846;2022-11-11T03:04:55;23.52;;;16.40;;
52786;SDS011;38661;53.152;5.846;2022-11-11T03:07:22;24.77;;;16.08;;
52786;SDS011;38661;53.152;5.846;2022-11-11T03:09:49;26.52;;;15.85;;
52786;SDS011;38661;53.152;5.846;2022-11-11T03:12:15;19.90;;;12.65;;
52786;SDS011;38661;53.152;5.846;2022-11-11T03:14:41;23.05;;;16.73;;
52786;SDS011;38661;53.152;5.846;2022-11-11T03:17:07;25.13;;;17.67;;
52786;SDS011;38661;53.152;5.846;2022-11-11T03:19:52;24.10;;;16.95;;
52786;SDS011;38661;53.152;5.846;2022-11-11T03:22:38;26.95;;;16.58;;
52786;SDS011;38661;53.152;5.846;2022-11-11T03:25:03;25.15;;;17.23;;
52786;SDS011;38661;53.152;5.846;2022-11-11T03:30:13;30.27;;;20.48;;
52786;SDS011;38661;53.152;5.846;2022-11-11T03:32:39;31.55;;;18.83;;
52786;SDS011;38661;53.152;5.846;2022-11-11T03:35:05;26.40;;;16.10;;
52786;SDS011;38661;53.152;5.846;2022-11-11T03:37:31;32.40;;;21.08;;
52786;SDS011;38661;53.152;5.846;2022-11-11T03:40:15;28.15;;;19.58;;
52786;SDS011;38661;53.152;5.846;2022-11-11T03:42:40;32.47;;;20.05;;
52786;SDS011;38661;53.152;5.846;2022-11-11T03:45:08;34.42;;;20.48;;
52786;SDS011;38661;53.152;5.846;2022-11-11T03:47:33;34.25;;;20.55;;
52786;SDS011;38661;53.152;5.846;2022-11-11T03:49:59;31.65;;;21.02;;
52786;SDS011;38661;53.152;5.846;2022-11-11T03:52:25;31.08;;;21.73;;
52786;SDS011;38661;53.152;5.846;2022-11-11T03:54:50;32.78;;;21.40;;
52786;SDS011;38661;53.152;5.846;2022-11-11T03:57:16;32.70;;;23.38;;
52786;SDS011;38661;53.152;5.846;2022-11-11T03:59:57;42.45;;;24.85;;
52786;SDS011;38661;53.152;5.846;2022-11-11T04:02:22;34.15;;;23.73;;
52786;SDS011;38661;53.152;5.846;2022-11-11T04:05:06;35.25;;;24.25;;
52786;SDS011;38661;53.152;5.846;2022-11-11T04:07:51;37.70;;;24.75;;
52786;SDS011;38661;53.152;5.846;2022-11-11T04:10:40;41.92;;;27.63;;
52786;SDS011;38661;53.152;5.846;2022-11-11T04:13:05;40.53;;;26.98;;
52786;SDS011;38661;53.152;5.846;2022-11-11T04:15:49;41.95;;;27.63;;
52786;SDS011;38661;53.152;5.846;2022-11-11T04:18:30;41.78;;;26.60;;
52786;SDS011;38661;53.152;5.846;2022-11-11T04:21:15;37.83;;;25.67;;
52786;SDS011;38661;53.152;5.846;2022-11-11T04:23:59;36.78;;;26.10;;
52786;SDS011;38661;53.152;5.846;2022-11-11T04:26:25;39.10;;;25.70;;
52786;SDS011;38661;53.152;5.846;2022-11-11T04:28:51;42.33;;;28.38;;
52786;SDS011;38661;53.152;5.846;2022-11-11T04:31:35;43.10;;;28.55;;
52786;SDS011;38661;53.152;5.846;2022-11-11T04:34:21;42.85;;;27.95;;
52786;SDS011;38661;53.152;5.846;2022-11-11T04:36:47;42.58;;;27.40;;
52786;SDS011;38661;53.152;5.846;2022-11-11T04:39:12;39.60;;;24.60;;
52786;SDS011;38661;53.152;5.846;2022-11-11T04:41:57;39.80;;;27.48;;
52786;SDS011;38661;53.152;5.846;2022-11-11T04:44:22;47.50;;;29.63;;
52786;SDS011;38661;53.152;5.846;2022-11-11T04:47:06;44.78;;;29.67;;
52786;SDS011;38661;53.152;5.846;2022-11-11T04:49:32;45.58;;;28.45;;
52786;SDS011;38661;53.152;5.846;2022-11-11T04:51:58;42.78;;;28.67;;
52786;SDS011;38661;53.152;5.846;2022-11-11T04:54:42;43.80;;;27.08;;
52786;SDS011;38661;53.152;5.846;2022-11-11T04:57:26;39.25;;;26.80;;
52786;SDS011;38661;53.152;5.846;2022-11-11T04:59:51;44.42;;;27.55;;
52786;SDS011;38661;53.152;5.846;2022-11-11T05:02:17;43.92;;;29.08;;
52786;SDS011;38661;53.152;5.846;2022-11-11T05:05:01;41.47;;;26.83;;
52786;SDS011;38661;53.152;5.846;2022-11-11T05:07:27;46.05;;;29.73;;
52786;SDS011;38661;53.152;5.846;2022-11-11T05:10:11;42.35;;;27.90;;
52786;SDS011;38661;53.152;5.846;2022-11-11T05:12:37;46.40;;;29.33;;
52786;SDS011;38661;53.152;5.846;2022-11-11T05:15:02;50.30;;;29.17;;
52786;SDS011;38661;53.152;5.846;2022-11-11T05:17:47;42.55;;;26.38;;
52786;SDS011;38661;53.152;5.846;2022-11-11T05:20:31;41.08;;;24.98;;
52786;SDS011;38661;53.152;5.846;2022-11-11T05:23:15;41.10;;;27.55;;
52786;SDS011;38661;53.152;5.846;2022-11-11T05:25:40;40.15;;;26.98;;
52786;SDS011;38661;53.152;5.846;2022-11-11T05:28:06;49.58;;;29.27;;
52786;SDS011;38661;53.152;5.846;2022-11-11T05:30:32;44.78;;;28.00;;
52786;SDS011;38661;53.152;5.846;2022-11-11T05:32:58;44.63;;;27.52;;
52786;SDS011;38661;53.152;5.846;2022-11-11T05:35:24;37.38;;;26.40;;
52786;SDS011;38661;53.152;5.846;2022-11-11T05:37:50;42.92;;;28.90;;
52786;SDS011;38661;53.152;5.846;2022-11-11T05:40:34;45.17;;;27.73;;
52786;SDS011;38661;53.152;5.846;2022-11-11T05:42:59;43.95;;;27.60;;
52786;SDS011;38661;53.152;5.846;2022-11-11T05:45:25;40.33;;;26.10;;
52786;SDS011;38661;53.152;5.846;2022-11-11T05:47:51;46.25;;;29.15;;
52786;SDS011;38661;53.152;5.846;2022-11-11T05:50:16;42.30;;;26.08;;
52786;SDS011;38661;53.152;5.846;2022-11-11T05:52:46;48.22;;;28.73;;
52786;SDS011;38661;53.152;5.846;2022-11-11T05:55:13;46.75;;;29.90;;
52786;SDS011;38661;53.152;5.846;2022-11-11T05:57:39;45.97;;;28.65;;
52786;SDS011;38661;53.152;5.846;2022-11-11T06:00:04;41.28;;;26.63;;
52786;SDS011;38661;53.152;5.846;2022-11-11T06:02:30;45.30;;;29.63;;
52786;SDS011;38661;53.152;5.846;2022-11-11T06:04:56;41.95;;;27.05;;
52786;SDS011;38661;53.152;5.846;2022-11-11T06:07:22;41.72;;;27.65;;
52786;SDS011;38661;53.152;5.846;2022-11-11T06:09:47;47.80;;;28.77;;
52786;SDS011;38661;53.152;5.846;2022-11-11T06:12:13;42.00;;;26.55;;
52786;SDS011;38661;53.152;5.846;2022-11-11T06:14:39;44.67;;;27.10;;
52786;SDS011;38661;53.152;5.846;2022-11-11T06:17:04;42.95;;;27.65;;
52786;SDS011;38661;53.152;5.846;2022-11-11T06:19:30;43.65;;;26.83;;
52786;SDS011;38661;53.152;5.846;2022-11-11T06:21:56;49.65;;;28.25;;
52786;SDS011;38661;53.152;5.846;2022-11-11T06:24:21;42.47;;;26.58;;
52786;SDS011;38661;53.152;5.846;2022-11-11T06:26:47;44.28;;;27.42;;
52786;SDS011;38661;53.152;5.846;2022-11-11T06:29:13;45.92;;;29.15;;
52786;SDS011;38661;53.152;5.846;2022-11-11T06:31:39;44.15;;;28.30;;
52786;SDS011;38661;53.152;5.846;2022-11-11T06:34:05;44.63;;;28.77;;
52786;SDS011;38661;53.152;5.846;2022-11-11T06:36:30;43.75;;;26.48;;
52786;SDS011;38661;53.152;5.846;2022-11-11T06:38:56;41.05;;;27.88;;
52786;SDS011;38661;53.152;5.846;2022-11-11T06:41:22;46.33;;;29.30;;
52786;SDS011;38661;53.152;5.846;2022-11-11T06:43:50;42.67;;;29.85;;
52786;SDS011;38661;53.152;5.846;2022-11-11T06:46:22;40.92;;;26.83;;
52786;SDS011;38661;53.152;5.846;2022-11-11T06:48:49;38.88;;;27.15;;
52786;SDS011;38661;53.152;5.846;2022-11-11T06:51:15;45.53;;;28.63;;
52786;SDS011;38661;53.152;5.846;2022-11-11T06:53:41;45.63;;;28.33;;
52786;SDS011;38661;53.152;5.846;2022-11-11T06:56:08;42.53;;;26.67;;
52786;SDS011;38661;53.152;5.846;2022-11-11T06:58:34;47.55;;;30.00;;
52786;SDS011;38661;53.152;5.846;2022-11-11T07:01:02;50.17;;;31.23;;
52786;SDS011;38661;53.152;5.846;2022-11-11T07:03:29;47.28;;;29.52;;
52786;SDS011;38661;53.152;5.846;2022-11-11T07:05:55;45.30;;;28.85;;
52786;SDS011;38661;53.152;5.846;2022-11-11T07:08:21;44.45;;;28.15;;
52786;SDS011;38661;53.152;5.846;2022-11-11T07:10:47;45.40;;;29.20;;
52786;SDS011;38661;53.152;5.846;2022-11-11T07:13:14;44.95;;;31.83;;
52786;SDS011;38661;53.152;5.846;2022-11-11T07:15:43;50.88;;;32.05;;
52786;SDS011;38661;53.152;5.846;2022-11-11T07:18:09;49.53;;;30.48;;
52786;SDS011;38661;53.152;5.846;2022-11-11T07:20:36;39.38;;;26.42;;
52786;SDS011;38661;53.152;5.846;2022-11-11T07:23:02;43.63;;;28.88;;
52786;SDS011;38661;53.152;5.846;2022-11-11T07:25:28;44.70;;;30.25;;
52786;SDS011;38661;53.152;5.846;2022-11-11T07:27:54;46.80;;;29.65;;
52786;SDS011;38661;53.152;5.846;2022-11-11T07:30:20;44.88;;;29.48;;
52786;SDS011;38661;53.152;5.846;2022-11-11T07:32:50;48.70;;;28.88;;
52786;SDS011;38661;53.152;5.846;2022-11-11T07:35:17;43.85;;;30.83;;
52786;SDS011;38661;53.152;5.846;2022-11-11T07:37:43;47.97;;;31.13;;
52786;SDS011;38661;53.152;5.846;2022-11-11T07:40:10;40.83;;;28.77;;
52786;SDS011;38661;53.152;5.846;2022-11-11T07:42:38;51.63;;;30.23;;
52786;SDS011;38661;53.152;5.846;2022-11-11T07:45:05;44.70;;;28.33;;
52786;SDS011;38661;53.152;5.846;2022-11-11T07:47:31;44.95;;;30.10;;
52786;SDS011;38661;53.152;5.846;2022-11-11T07:49:58;49.83;;;31.58;;
52786;SDS011;38661;53.152;5.846;2022-11-11T07:52:25;48.47;;;29.95;;
52786;SDS011;38661;53.152;5.846;2022-11-11T07:54:50;42.25;;;28.60;;
52786;SDS011;38661;53.152;5.846;2022-11-11T07:57:16;45.35;;;27.52;;
52786;SDS011;38661;53.152;5.846;2022-11-11T07:59:42;44.20;;;30.48;;
52786;SDS011;38661;53.152;5.846;2022-11-11T08:02:11;45.03;;;29.50;;
52786;SDS011;38661;53.152;5.846;2022-11-11T08:04:37;43.92;;;29.30;;
52786;SDS011;38661;53.152;5.846;2022-11-11T08:07:03;51.60;;;29.25;;
52786;SDS011;38661;53.152;5.846;2022-11-11T08:09:29;40.95;;;28.52;;
52786;SDS011;38661;53.152;5.846;2022-11-11T08:11:55;42.15;;;28.92;;
52786;SDS011;38661;53.152;5.846;2022-11-11T08:14:52;40.28;;;26.65;;
52786;SDS011;38661;53.152;5.846;2022-11-11T08:17:18;46.55;;;28.17;;
52786;SDS011;38661;53.152;5.846;2022-11-11T08:19:44;36.83;;;23.20;;
52786;SDS011;38661;53.152;5.846;2022-11-11T08:22:09;46.67;;;28.42;;
52786;SDS011;38661;53.152;5.846;2022-11-11T08:24:35;47.10;;;29.05;;
52786;SDS011;38661;53.152;5.846;2022-11-11T08:27:01;46.70;;;30.35;;
52786;SDS011;38661;53.152;5.846;2022-11-11T08:29:26;49.10;;;30.35;;
52786;SDS011;38661;53.152;5.846;2022-11-11T08:31:52;47.10;;;29.55;;
52786;SDS011;38661;53.152;5.846;2022-11-11T08:34:18;50.30;;;32.80;;
52786;SDS011;38661;53.152;5.846;2022-11-11T08:36:43;42.15;;;28.35;;
52786;SDS011;38661;53.152;5.846;2022-11-11T08:39:09;42.85;;;29.95;;
52786;SDS011;38661;53.152;5.846;2022-11-11T08:41:36;45.15;;;28.15;;
52786;SDS011;38661;53.152;5.846;2022-11-11T08:44:01;45.80;;;30.95;;
52786;SDS011;38661;53.152;5.846;2022-11-11T08:46:29;49.60;;;30.90;;
52786;SDS011;38661;53.152;5.846;2022-11-11T08:48:54;40.35;;;24.85;;
52786;SDS011;38661;53.152;5.846;2022-11-11T08:51:20;41.70;;;27.42;;
52786;SDS011;38661;53.152;5.846;2022-11-11T08:53:46;44.85;;;30.42;;
52786;SDS011;38661;53.152;5.846;2022-11-11T08:56:12;40.17;;;28.50;;
52786;SDS011;38661;53.152;5.846;2022-11-11T08:58:37;45.00;;;28.70;;
52786;SDS011;38661;53.152;5.846;2022-11-11T09:01:03;49.17;;;31.17;;
52786;SDS011;38661;53.152;5.846;2022-11-11T09:03:34;40.03;;;26.80;;
52786;SDS011;38661;53.152;5.846;2022-11-11T09:05:59;44.95;;;29.63;;
52786;SDS011;38661;53.152;5.846;2022-11-11T09:08:25;46.10;;;29.27;;
52786;SDS011;38661;53.152;5.846;2022-11-11T09:10:51;46.60;;;29.63;;
52786;SDS011;38661;53.152;5.846;2022-11-11T09:13:16;41.95;;;29.23;;
52786;SDS011;38661;53.152;5.846;2022-11-11T09:15:45;46.67;;;30.05;;
52786;SDS011;38661;53.152;5.846;2022-11-11T09:18:11;47.10;;;30.27;;
52786;SDS011;38661;53.152;5.846;2022-11-11T09:20:39;41.35;;;26.27;;
52786;SDS011;38661;53.152;5.846;2022-11-11T09:23:05;42.38;;;28.85;;
52786;SDS011;38661;53.152;5.846;2022-11-11T09:25:31;42.88;;;27.95;;
52786;SDS011;38661;53.152;5.846;2022-11-11T09:27:57;39.60;;;25.17;;
52786;SDS011;38661;53.152;5.846;2022-11-11T09:30:25;41.72;;;28.27;;
52786;SDS011;38661;53.152;5.846;2022-11-11T09:32:52;43.25;;;28.42;;
52786;SDS011;38661;53.152;5.846;2022-11-11T09:35:18;45.47;;;29.60;;
52786;SDS011;38661;53.152;5.846;2022-11-11T09:37:57;44.45;;;29.02;;
52786;SDS011;38661;53.152;5.846;2022-11-11T09:40:25;43.05;;;27.80;;
52786;SDS011;38661;53.152;5.846;2022-11-11T09:43:02;46.08;;;28.30;;
52786;SDS011;38661;53.152;5.846;2022-11-11T09:45:49;45.13;;;27.77;;
52786;SDS011;38661;53.152;5.846;2022-11-11T09:51:02;44.78;;;30.25;;
52786;SDS011;38661;53.152;5.846;2022-11-11T09:53:31;45.55;;;29.85;;
52786;SDS011;38661;53.152;5.846;2022-11-11T09:56:00;42.70;;;29.25;;
52786;SDS011;38661;53.152;5.846;2022-11-11T09:58:36;43.45;;;27.58;;
52786;SDS011;38661;53.152;5.846;2022-11-11T10:01:30;42.60;;;28.00;;
52786;SDS011;38661;53.152;5.846;2022-11-11T10:06:56;43.45;;;27.77;;
52786;SDS011;38661;53.152;5.846;2022-11-11T10:09:45;42.00;;;29.02;;
52786;SDS011;38661;53.152;5.846;2022-11-11T10:12:18;40.53;;;28.92;;
52786;SDS011;38661;53.152;5.846;2022-11-11T10:14:47;42.05;;;30.30;;
52786;SDS011;38661;53.152;5.846;2022-11-11T10:22:41;39.03;;;28.08;;
52786;SDS011;38661;53.152;5.846;2022-11-11T10:27:41;36.72;;;26.30;;
52786;SDS011;38661;53.152;5.846;2022-11-11T10:35:28;43.67;;;27.40;;
52786;SDS011;38661;53.152;5.846;2022-11-11T10:38:16;41.92;;;28.65;;
52786;SDS011;38661;53.152;5.846;2022-11-11T10:40:52;39.60;;;26.77;;
52786;SDS011;38661;53.152;5.846;2022-11-11T10:46:02;39.10;;;27.88;;
52786;SDS011;38661;53.152;5.846;2022-11-11T10:51:11;39.47;;;26.90;;
52786;SDS011;38661;53.152;5.846;2022-11-11T10:53:39;39.60;;;25.92;;
52786;SDS011;38661;53.152;5.846;2022-11-11T11:01:42;36.78;;;28.77;;
52786;SDS011;38661;53.152;5.846;2022-11-11T11:04:16;38.28;;;27.63;;
52786;SDS011;38661;53.152;5.846;2022-11-11T11:06:50;38.78;;;27.27;;
52786;SDS011;38661;53.152;5.846;2022-11-11T11:09:21;38.17;;;24.77;;
52786;SDS011;38661;53.152;5.846;2022-11-11T11:12:04;36.90;;;24.45;;
52786;SDS011;38661;53.152;5.846;2022-11-11T11:14:41;37.95;;;27.65;;
52786;SDS011;38661;53.152;5.846;2022-11-11T11:17:12;41.83;;;26.48;;
52786;SDS011;38661;53.152;5.846;2022-11-11T11:19:42;37.03;;;27.25;;
52786;SDS011;38661;53.152;5.846;2022-11-11T11:22:07;42.00;;;27.02;;
52786;SDS011;38661;53.152;5.846;2022-11-11T11:24:34;39.22;;;26.67;;
52786;SDS011;38661;53.152;5.846;2022-11-11T11:27:04;37.65;;;28.23;;
52786;SDS011;38661;53.152;5.846;2022-11-11T11:29:32;40.20;;;27.15;;
52786;SDS011;38661;53.152;5.846;2022-11-11T11:32:15;44.53;;;28.90;;
52786;SDS011;38661;53.152;5.846;2022-11-11T11:34:47;37.53;;;27.00;;
52786;SDS011;38661;53.152;5.846;2022-11-11T11:37:14;39.35;;;25.20;;
52786;SDS011;38661;53.152;5.846;2022-11-11T11:39:40;40.63;;;28.05;;
52786;SDS011;38661;53.152;5.846;2022-11-11T11:42:07;42.78;;;29.02;;
52786;SDS011;38661;53.152;5.846;2022-11-11T11:44:35;35.40;;;21.90;;
52786;SDS011;38661;53.152;5.846;2022-11-11T12:00:15;38.28;;;26.52;;
52786;SDS011;38661;53.152;5.846;2022-11-11T12:17:16;39.22;;;26.52;;
52786;SDS011;38661;53.152;5.846;2022-11-11T12:31:53;36.75;;;24.83;;
52786;SDS011;38661;53.152;5.846;2022-11-11T12:34:48;44.50;;;29.10;;
52786;SDS011;38661;53.152;5.846;2022-11-11T12:40:25;40.17;;;24.75;;
52786;SDS011;38661;53.152;5.846;2022-11-11T12:43:23;47.55;;;28.70;;
52786;SDS011;38661;53.152;5.846;2022-11-11T12:51:18;40.33;;;25.52;;
52786;SDS011;38661;53.152;5.846;2022-11-11T12:56:31;38.60;;;23.55;;
52786;SDS011;38661;53.152;5.846;2022-11-11T12:59:26;41.83;;;27.20;;
52786;SDS011;38661;53.152;5.846;2022-11-11T13:15:58;41.15;;;25.70;;
52786;SDS011;38661;53.152;5.846;2022-11-11T13:18:25;33.17;;;23.75;;
52786;SDS011;38661;53.152;5.846;2022-11-11T13:20:57;37.17;;;25.52;;
52786;SDS011;38661;53.152;5.846;2022-11-11T13:23:25;40.00;;;26.55;;
52786;SDS011;38661;53.152;5.846;2022-11-11T13:26:02;33.47;;;22.30;;
52786;SDS011;38661;53.152;5.846;2022-11-11T13:28:39;34.50;;;21.88;;
52786;SDS011;38661;53.152;5.846;2022-11-11T13:31:15;36.88;;;23.42;;
52786;SDS011;38661;53.152;5.846;2022-11-11T13:33:55;33.65;;;21.40;;
52786;SDS011;38661;53.152;5.846;2022-11-11T13:36:26;37.42;;;26.77;;
52786;SDS011;38661;53.152;5.846;2022-11-11T13:38:54;39.78;;;25.77;;
52786;SDS011;38661;53.152;5.846;2022-11-11T13:41:24;37.58;;;26.17;;
52786;SDS011;38661;53.152;5.846;2022-11-11T13:44:00;31.38;;;20.50;;
52786;SDS011;38661;53.152;5.846;2022-11-11T13:49:07;35.05;;;24.25;;
52786;SDS011;38661;53.152;5.846;2022-11-11T13:52:02;37.33;;;25.50;;
52786;SDS011;38661;53.152;5.846;2022-11-11T13:54:42;34.33;;;24.25;;
52786;SDS011;38661;53.152;5.846;2022-11-11T13:57:20;31.60;;;23.25;;
52786;SDS011;38661;53.152;5.846;2022-11-11T13:59:56;33.78;;;21.67;;
52786;SDS011;38661;53.152;5.846;2022-11-11T14:02:29;35.08;;;24.92;;
52786;SDS011;38661;53.152;5.846;2022-11-11T14:12:43;35.20;;;22.38;;
52786;SDS011;38661;53.152;5.846;2022-11-11T14:15:35;32.50;;;22.45;;
52786;SDS011;38661;53.152;5.846;2022-11-11T14:18:02;33.33;;;23.40;;
52786;SDS011;38661;53.152;5.846;2022-11-11T14:20:36;32.72;;;21.08;;
52786;SDS011;38661;53.152;5.846;2022-11-11T14:36:49;31.13;;;22.95;;
52786;SDS011;38661;53.152;5.846;2022-11-11T14:39:46;30.42;;;21.00;;
52786;SDS011;38661;53.152;5.846;2022-11-11T14:45:01;28.50;;;20.38;;
52786;SDS011;38661;53.152;5.846;2022-11-11T14:47:32;32.40;;;22.65;;
52786;SDS011;38661;53.152;5.846;2022-11-11T14:49:59;33.88;;;23.23;;
52786;SDS011;38661;53.152;5.846;2022-11-11T14:52:39;32.85;;;24.15;;
52786;SDS011;38661;53.152;5.846;2022-11-11T14:57:54;30.58;;;24.13;;
52786;SDS011;38661;53.152;5.846;2022-11-11T15:00:52;33.80;;;25.48;;
52786;SDS011;38661;53.152;5.846;2022-11-11T15:03:35;32.35;;;23.25;;
52786;SDS011;38661;53.152;5.846;2022-11-11T15:39:08;39.65;;;26.30;;
52786;SDS011;38661;53.152;5.846;2022-11-11T15:41:38;38.60;;;29.58;;
52786;SDS011;38661;53.152;5.846;2022-11-11T15:46:46;52.70;;;38.72;;
52786;SDS011;38661;53.152;5.846;2022-11-11T15:49:14;45.72;;;34.08;;
52786;SDS011;38661;53.152;5.846;2022-11-11T15:54:57;33.55;;;26.55;;
52786;SDS011;38661;53.152;5.846;2022-11-11T15:59:58;41.65;;;23.60;;
52786;SDS011;38661;53.152;5.846;2022-11-11T16:02:29;40.72;;;26.70;;
52786;SDS011;38661;53.152;5.846;2022-11-11T16:04:59;34.88;;;23.67;;
52786;SDS011;38661;53.152;5.846;2022-11-11T16:07:29;38.75;;;26.25;;
52786;SDS011;38661;53.152;5.846;2022-11-11T16:10:04;36.28;;;24.75;;
52786;SDS011;38661;53.152;5.846;2022-11-11T16:12:51;33.35;;;24.02;;
52786;SDS011;38661;53.152;5.846;2022-11-11T16:15:38;34.45;;;23.60;;
52786;SDS011;38661;53.152;5.846;2022-11-11T16:18:14;33.13;;;24.02;;
52786;SDS011;38661;53.152;5.846;2022-11-11T16:20:50;34.58;;;23.48;;
52786;SDS011;38661;53.152;5.846;2022-11-11T16:23:19;33.63;;;23.27;;
52786;SDS011;38661;53.152;5.846;2022-11-11T16:25:46;37.63;;;25.77;;
52786;SDS011;38661;53.152;5.846;2022-11-11T16:28:13;35.67;;;24.42;;
52786;SDS011;38661;53.152;5.846;2022-11-11T16:30:40;38.25;;;26.85;;
52786;SDS011;38661;53.152;5.846;2022-11-11T16:33:17;35.75;;;24.58;;
52786;SDS011;38661;53.152;5.846;2022-11-11T16:36:05;38.17;;;26.73;;
52786;SDS011;38661;53.152;5.846;2022-11-11T16:38:32;37.45;;;25.55;;
52786;SDS011;38661;53.152;5.846;2022-11-11T16:40:58;44.22;;;26.83;;
52786;SDS011;38661;53.152;5.846;2022-11-11T16:43:25;35.80;;;25.45;;
52786;SDS011;38661;53.152;5.846;2022-11-11T16:46:07;41.83;;;26.63;;
52786;SDS011;38661;53.152;5.846;2022-11-11T16:51:07;38.70;;;26.98;;
52786;SDS011;38661;53.152;5.846;2022-11-11T16:53:42;40.08;;;28.10;;
52786;SDS011;38661;53.152;5.846;2022-11-11T16:56:26;36.72;;;25.27;;
52786;SDS011;38661;53.152;5.846;2022-11-11T16:58:55;40.78;;;27.23;;
52786;SDS011;38661;53.152;5.846;2022-11-11T17:01:24;38.97;;;27.15;;
52786;SDS011;38661;53.152;5.846;2022-11-11T17:03:58;39.08;;;26.88;;
52786;SDS011;38661;53.152;5.846;2022-11-11T17:12:02;38.40;;;26.35;;
52786;SDS011;38661;53.152;5.846;2022-11-11T17:14:30;37.28;;;27.02;;
52786;SDS011;38661;53.152;5.846;2022-11-11T17:16:58;39.47;;;25.80;;
52786;SDS011;38661;53.152;5.846;2022-11-11T17:19:24;43.63;;;29.45;;
52786;SDS011;38661;53.152;5.846;2022-11-11T17:21:50;40.00;;;26.45;;
52786;SDS011;38661;53.152;5.846;2022-11-11T17:24:16;39.03;;;26.13;;
52786;SDS011;38661;53.152;5.846;2022-11-11T17:26:41;41.50;;;28.30;;
52786;SDS011;38661;53.152;5.846;2022-11-11T17:29:07;41.00;;;27.58;;
52786;SDS011;38661;53.152;5.846;2022-11-11T17:31:35;41.83;;;27.42;;
52786;SDS011;38661;53.152;5.846;2022-11-11T17:34:08;37.58;;;26.48;;
52786;SDS011;38661;53.152;5.846;2022-11-11T17:36:34;39.33;;;26.33;;
52786;SDS011;38661;53.152;5.846;2022-11-11T17:39:00;41.03;;;27.85;;
52786;SDS011;38661;53.152;5.846;2022-11-11T17:41:26;40.08;;;27.70;;
52786;SDS011;38661;53.152;5.846;2022-11-11T17:43:51;41.67;;;27.77;;
52786;SDS011;38661;53.152;5.846;2022-11-11T17:46:17;43.40;;;27.77;;
52786;SDS011;38661;53.152;5.846;2022-11-11T17:48:43;42.08;;;29.00;;